sensor_id;sensor_type;location;lat;lon;timestamp;P1;durP1;ratioP1;P2;durP2;ratioP2
64881;SDS011;51375;44.836;38.672;2024-03-29T00:01:23;18.63;;;3.67;;
64881;SDS011;51375;44.836;38.672;2024-03-29T00:03:49;7.47;;;2.80;;
64881;SDS011;51375;44.836;38.672;2024-03-29T00:06:16;10.10;;;2.72;;
64881;SDS011;51375;44.836;38.672;2024-03-29T00:08:43;12.23;;;3.03;;
64881;SDS011;51375;44.836;38.672;2024-03-29T00:11:09;7.95;;;2.88;;
64881;SDS011;51375;44.836;38.672;2024-03-29T00:13:35;12.02;;;2.55;;
64881;SDS011;51375;44.836;38.672;2024-03-29T00:16:01;6.93;;;2.60;;
64881;SDS011;51375;44.836;38.672;2024-03-29T00:18:27;15.18;;;2.90;;
64881;SDS011;51375;44.836;38.672;2024-03-29T00:20:52;6.70;;;2.30;;
64881;SDS011;51375;44.836;38.672;2024-03-29T00:23:18;6.10;;;2.13;;
64881;SDS011;51375;44.836;38.672;2024-03-29T00:25:44;6.30;;;1.77;;
64881;SDS011;51375;44.836;38.672;2024-03-29T00:28:10;5.10;;;2.45;;
64881;SDS011;51375;44.836;38.672;2024-03-29T00:30:36;9.63;;;2.05;;
64881;SDS011;51375;44.836;38.672;2024-03-29T00:33:02;8.10;;;2.03;;
64881;SDS011;51375;44.836;38.672;2024-03-29T00:35:28;7.35;;;2.13;;
64881;SDS011;51375;44.836;38.672;2024-03-29T00:37:54;9.88;;;1.98;;
64881;SDS011;51375;44.836;38.672;2024-03-29T00:40:20;8.07;;;2.00;;
64881;SDS011;51375;44.836;38.672;2024-03-29T00:42:46;4.13;;;2.03;;
64881;SDS011;51375;44.836;38.672;2024-03-29T00:45:12;4.05;;;2.10;;
64881;SDS011;51375;44.836;38.672;2024-03-29T00:47:38;5.82;;;2.20;;
64881;SDS011;51375;44.836;38.672;2024-03-29T00:50:03;4.43;;;1.98;;
64881;SDS011;51375;44.836;38.672;2024-03-29T00:52:30;4.07;;;1.92;;
64881;SDS011;51375;44.836;38.672;2024-03-29T00:54:56;3.67;;;2.00;;
64881;SDS011;51375;44.836;38.672;2024-03-29T00:57:22;6.97;;;1.90;;
64881;SDS011;51375;44.836;38.672;2024-03-29T00:59:47;8.48;;;2.28;;
64881;SDS011;51375;44.836;38.672;2024-03-29T01:02:13;4.85;;;2.30;;
64881;SDS011;51375;44.836;38.672;2024-03-29T01:04:39;6.20;;;2.85;;
64881;SDS011;51375;44.836;38.672;2024-03-29T01:07:06;16.80;;;3.63;;
64881;SDS011;51375;44.836;38.672;2024-03-29T01:09:32;10.52;;;3.33;;
64881;SDS011;51375;44.836;38.672;2024-03-29T01:11:58;16.70;;;3.40;;
64881;SDS011;51375;44.836;38.672;2024-03-29T01:14:24;12.95;;;3.40;;
64881;SDS011;51375;44.836;38.672;2024-03-29T01:16:50;26.35;;;6.15;;
64881;SDS011;51375;44.836;38.672;2024-03-29T01:19:16;22.23;;;6.65;;
64881;SDS011;51375;44.836;38.672;2024-03-29T01:21:42;14.20;;;3.92;;
64881;SDS011;51375;44.836;38.672;2024-03-29T01:24:09;9.75;;;3.15;;
64881;SDS011;51375;44.836;38.672;2024-03-29T01:26:35;5.43;;;2.60;;
64881;SDS011;51375;44.836;38.672;2024-03-29T01:29:00;5.05;;;2.20;;
64881;SDS011;51375;44.836;38.672;2024-03-29T01:31:26;5.80;;;2.47;;
64881;SDS011;51375;44.836;38.672;2024-03-29T01:33:52;3.72;;;1.90;;
64881;SDS011;51375;44.836;38.672;2024-03-29T01:36:21;5.60;;;1.90;;
64881;SDS011;51375;44.836;38.672;2024-03-29T01:38:47;2.88;;;1.40;;
64881;SDS011;51375;44.836;38.672;2024-03-29T01:41:14;6.35;;;1.90;;
64881;SDS011;51375;44.836;38.672;2024-03-29T01:43:40;6.50;;;1.70;;
64881;SDS011;51375;44.836;38.672;2024-03-29T01:46:06;2.22;;;1.40;;
64881;SDS011;51375;44.836;38.672;2024-03-29T01:48:33;4.50;;;1.30;;
64881;SDS011;51375;44.836;38.672;2024-03-29T01:50:59;3.03;;;1.55;;
64881;SDS011;51375;44.836;38.672;2024-03-29T01:53:26;5.05;;;1.50;;
64881;SDS011;51375;44.836;38.672;2024-03-29T01:55:53;4.07;;;1.40;;
64881;SDS011;51375;44.836;38.672;2024-03-29T01:58:20;1.85;;;1.20;;
64881;SDS011;51375;44.836;38.672;2024-03-29T02:00:53;1.77;;;1.40;;
64881;SDS011;51375;44.836;38.672;2024-03-29T02:03:22;4.40;;;1.65;;
64881;SDS011;51375;44.836;38.672;2024-03-29T02:05:48;4.22;;;1.38;;
64881;SDS011;51375;44.836;38.672;2024-03-29T02:08:15;1.85;;;1.38;;
64881;SDS011;51375;44.836;38.672;2024-03-29T02:10:42;7.05;;;2.00;;
64881;SDS011;51375;44.836;38.672;2024-03-29T02:13:09;4.60;;;2.00;;
64881;SDS011;51375;44.836;38.672;2024-03-29T02:15:35;3.78;;;1.95;;
64881;SDS011;51375;44.836;38.672;2024-03-29T02:18:01;5.35;;;2.13;;
64881;SDS011;51375;44.836;38.672;2024-03-29T02:20:27;6.53;;;2.03;;
64881;SDS011;51375;44.836;38.672;2024-03-29T02:23:00;4.10;;;1.90;;
64881;SDS011;51375;44.836;38.672;2024-03-29T02:25:36;3.55;;;1.80;;
64881;SDS011;51375;44.836;38.672;2024-03-29T02:28:03;4.57;;;1.92;;
64881;SDS011;51375;44.836;38.672;2024-03-29T02:30:29;6.47;;;2.20;;
64881;SDS011;51375;44.836;38.672;2024-03-29T02:32:56;9.57;;;2.45;;
64881;SDS011;51375;44.836;38.672;2024-03-29T02:35:25;4.85;;;2.42;;
64881;SDS011;51375;44.836;38.672;2024-03-29T02:37:51;7.60;;;2.40;;
64881;SDS011;51375;44.836;38.672;2024-03-29T02:40:18;7.70;;;3.00;;
64881;SDS011;51375;44.836;38.672;2024-03-29T02:42:45;10.77;;;3.40;;
64881;SDS011;51375;44.836;38.672;2024-03-29T02:45:11;9.85;;;3.08;;
64881;SDS011;51375;44.836;38.672;2024-03-29T02:47:37;13.07;;;3.17;;
64881;SDS011;51375;44.836;38.672;2024-03-29T02:50:03;12.70;;;3.10;;
64881;SDS011;51375;44.836;38.672;2024-03-29T02:52:29;10.60;;;2.85;;
64881;SDS011;51375;44.836;38.672;2024-03-29T02:54:55;10.88;;;3.25;;
64881;SDS011;51375;44.836;38.672;2024-03-29T02:57:21;9.25;;;3.70;;
64881;SDS011;51375;44.836;38.672;2024-03-29T02:59:47;17.58;;;5.13;;
64881;SDS011;51375;44.836;38.672;2024-03-29T03:02:12;19.17;;;6.43;;
64881;SDS011;51375;44.836;38.672;2024-03-29T03:04:38;25.67;;;7.63;;
64881;SDS011;51375;44.836;38.672;2024-03-29T03:07:04;23.90;;;7.32;;
64881;SDS011;51375;44.836;38.672;2024-03-29T03:09:49;21.27;;;6.30;;
64881;SDS011;51375;44.836;38.672;2024-03-29T03:12:33;21.27;;;5.28;;
64881;SDS011;51375;44.836;38.672;2024-03-29T03:14:59;22.13;;;6.25;;
64881;SDS011;51375;44.836;38.672;2024-03-29T03:17:28;13.93;;;4.93;;
64881;SDS011;51375;44.836;38.672;2024-03-29T03:19:54;22.20;;;6.10;;
64881;SDS011;51375;44.836;38.672;2024-03-29T03:22:20;18.13;;;6.03;;
64881;SDS011;51375;44.836;38.672;2024-03-29T03:24:47;12.98;;;4.88;;
64881;SDS011;51375;44.836;38.672;2024-03-29T03:27:13;14.60;;;5.03;;
64881;SDS011;51375;44.836;38.672;2024-03-29T03:29:39;18.80;;;6.63;;
64881;SDS011;51375;44.836;38.672;2024-03-29T03:32:05;25.17;;;5.80;;
64881;SDS011;51375;44.836;38.672;2024-03-29T03:34:32;21.80;;;7.13;;
64881;SDS011;51375;44.836;38.672;2024-03-29T03:36:58;25.48;;;6.63;;
64881;SDS011;51375;44.836;38.672;2024-03-29T03:39:24;23.85;;;8.15;;
64881;SDS011;51375;44.836;38.672;2024-03-29T03:41:50;29.10;;;8.07;;
64881;SDS011;51375;44.836;38.672;2024-03-29T03:44:16;24.35;;;7.78;;
64881;SDS011;51375;44.836;38.672;2024-03-29T03:46:42;19.23;;;6.32;;
64881;SDS011;51375;44.836;38.672;2024-03-29T03:49:08;32.42;;;7.63;;
64881;SDS011;51375;44.836;38.672;2024-03-29T03:51:34;31.60;;;9.88;;
64881;SDS011;51375;44.836;38.672;2024-03-29T03:54:00;35.42;;;9.93;;
64881;SDS011;51375;44.836;38.672;2024-03-29T03:56:26;31.70;;;9.27;;
64881;SDS011;51375;44.836;38.672;2024-03-29T03:58:52;31.42;;;9.23;;
64881;SDS011;51375;44.836;38.672;2024-03-29T04:01:18;29.90;;;9.23;;
64881;SDS011;51375;44.836;38.672;2024-03-29T04:03:44;25.77;;;8.60;;
64881;SDS011;51375;44.836;38.672;2024-03-29T04:06:10;37.65;;;9.40;;
64881;SDS011;51375;44.836;38.672;2024-03-29T04:08:36;33.90;;;9.15;;
64881;SDS011;51375;44.836;38.672;2024-03-29T04:11:03;44.67;;;10.98;;
64881;SDS011;51375;44.836;38.672;2024-03-29T04:13:29;29.33;;;9.27;;
64881;SDS011;51375;44.836;38.672;2024-03-29T04:16:02;33.65;;;8.93;;
64881;SDS011;51375;44.836;38.672;2024-03-29T04:18:28;28.30;;;8.65;;
64881;SDS011;51375;44.836;38.672;2024-03-29T04:20:58;31.98;;;9.05;;
64881;SDS011;51375;44.836;38.672;2024-03-29T04:23:25;36.38;;;8.38;;
64881;SDS011;51375;44.836;38.672;2024-03-29T04:26:00;30.58;;;8.13;;
64881;SDS011;51375;44.836;38.672;2024-03-29T04:28:26;32.83;;;7.95;;
64881;SDS011;51375;44.836;38.672;2024-03-29T04:33:22;37.33;;;8.15;;
64881;SDS011;51375;44.836;38.672;2024-03-29T04:35:56;22.75;;;6.60;;
64881;SDS011;51375;44.836;38.672;2024-03-29T04:38:29;29.75;;;7.35;;
64881;SDS011;51375;44.836;38.672;2024-03-29T04:40:57;20.48;;;5.70;;
64881;SDS011;51375;44.836;38.672;2024-03-29T04:43:25;20.33;;;6.22;;
64881;SDS011;51375;44.836;38.672;2024-03-29T04:46:08;22.48;;;6.35;;
64881;SDS011;51375;44.836;38.672;2024-03-29T04:48:36;21.67;;;5.13;;
64881;SDS011;51375;44.836;38.672;2024-03-29T04:51:07;14.75;;;5.20;;
64881;SDS011;51375;44.836;38.672;2024-03-29T04:53:37;22.70;;;5.60;;
64881;SDS011;51375;44.836;38.672;2024-03-29T04:56:04;17.88;;;5.43;;
64881;SDS011;51375;44.836;38.672;2024-03-29T04:58:30;12.27;;;4.78;;
64881;SDS011;51375;44.836;38.672;2024-03-29T05:00:57;12.18;;;4.60;;
64881;SDS011;51375;44.836;38.672;2024-03-29T05:03:23;24.92;;;5.78;;
64881;SDS011;51375;44.836;38.672;2024-03-29T05:05:49;14.13;;;5.55;;
64881;SDS011;51375;44.836;38.672;2024-03-29T05:08:16;10.73;;;4.20;;
64881;SDS011;51375;44.836;38.672;2024-03-29T05:10:44;14.00;;;3.75;;
64881;SDS011;51375;44.836;38.672;2024-03-29T05:13:10;17.50;;;3.78;;
64881;SDS011;51375;44.836;38.672;2024-03-29T05:15:37;19.40;;;4.28;;
64881;SDS011;51375;44.836;38.672;2024-03-29T05:18:03;10.35;;;3.38;;
64881;SDS011;51375;44.836;38.672;2024-03-29T05:20:29;8.25;;;3.28;;
64881;SDS011;51375;44.836;38.672;2024-03-29T05:22:57;12.40;;;3.67;;
64881;SDS011;51375;44.836;38.672;2024-03-29T05:25:24;11.07;;;3.30;;
64881;SDS011;51375;44.836;38.672;2024-03-29T05:27:50;13.13;;;3.42;;
64881;SDS011;51375;44.836;38.672;2024-03-29T05:30:16;15.90;;;3.55;;
64881;SDS011;51375;44.836;38.672;2024-03-29T05:32:42;14.38;;;3.40;;
64881;SDS011;51375;44.836;38.672;2024-03-29T05:35:09;8.13;;;3.10;;
64881;SDS011;51375;44.836;38.672;2024-03-29T05:37:36;8.02;;;3.13;;
64881;SDS011;51375;44.836;38.672;2024-03-29T05:40:02;12.63;;;3.28;;
64881;SDS011;51375;44.836;38.672;2024-03-29T05:42:32;17.98;;;2.90;;
64881;SDS011;51375;44.836;38.672;2024-03-29T05:44:59;15.52;;;3.55;;
64881;SDS011;51375;44.836;38.672;2024-03-29T05:47:25;12.45;;;3.42;;
64881;SDS011;51375;44.836;38.672;2024-03-29T05:49:51;12.25;;;2.67;;
64881;SDS011;51375;44.836;38.672;2024-03-29T05:52:17;10.65;;;2.83;;
64881;SDS011;51375;44.836;38.672;2024-03-29T05:54:43;16.73;;;2.63;;
64881;SDS011;51375;44.836;38.672;2024-03-29T05:57:10;17.52;;;3.67;;
64881;SDS011;51375;44.836;38.672;2024-03-29T05:59:37;12.25;;;3.35;;
64881;SDS011;51375;44.836;38.672;2024-03-29T06:02:03;16.15;;;3.50;;
64881;SDS011;51375;44.836;38.672;2024-03-29T06:04:30;13.05;;;3.40;;
64881;SDS011;51375;44.836;38.672;2024-03-29T06:07:01;10.65;;;2.83;;
64881;SDS011;51375;44.836;38.672;2024-03-29T06:09:27;11.77;;;2.75;;
64881;SDS011;51375;44.836;38.672;2024-03-29T06:11:56;11.52;;;3.00;;
64881;SDS011;51375;44.836;38.672;2024-03-29T06:14:23;17.13;;;3.50;;
64881;SDS011;51375;44.836;38.672;2024-03-29T06:17:07;8.77;;;2.38;;
64881;SDS011;51375;44.836;38.672;2024-03-29T06:19:49;11.43;;;1.90;;
64881;SDS011;51375;44.836;38.672;2024-03-29T06:22:29;5.72;;;1.75;;
64881;SDS011;51375;44.836;38.672;2024-03-29T06:24:56;18.58;;;2.38;;
64881;SDS011;51375;44.836;38.672;2024-03-29T06:27:33;20.08;;;2.53;;
64881;SDS011;51375;44.836;38.672;2024-03-29T06:30:00;16.65;;;2.45;;
64881;SDS011;51375;44.836;38.672;2024-03-29T06:32:26;11.52;;;2.45;;
64881;SDS011;51375;44.836;38.672;2024-03-29T06:34:52;12.57;;;2.20;;
64881;SDS011;51375;44.836;38.672;2024-03-29T06:37:18;14.15;;;2.40;;
64881;SDS011;51375;44.836;38.672;2024-03-29T06:39:47;14.07;;;3.47;;
64881;SDS011;51375;44.836;38.672;2024-03-29T06:42:14;13.57;;;2.70;;
64881;SDS011;51375;44.836;38.672;2024-03-29T06:44:39;9.10;;;2.55;;
64881;SDS011;51375;44.836;38.672;2024-03-29T06:47:06;12.88;;;3.17;;
64881;SDS011;51375;44.836;38.672;2024-03-29T06:49:33;9.98;;;2.63;;
64881;SDS011;51375;44.836;38.672;2024-03-29T06:51:59;12.43;;;2.42;;
64881;SDS011;51375;44.836;38.672;2024-03-29T06:54:26;6.32;;;2.30;;
64881;SDS011;51375;44.836;38.672;2024-03-29T06:56:56;6.13;;;1.52;;
64881;SDS011;51375;44.836;38.672;2024-03-29T06:59:22;4.65;;;1.70;;
64881;SDS011;51375;44.836;38.672;2024-03-29T07:01:49;6.40;;;2.10;;
64881;SDS011;51375;44.836;38.672;2024-03-29T07:04:19;11.10;;;3.47;;
64881;SDS011;51375;44.836;38.672;2024-03-29T07:06:45;17.65;;;4.60;;
64881;SDS011;51375;44.836;38.672;2024-03-29T07:09:15;8.93;;;2.65;;
64881;SDS011;51375;44.836;38.672;2024-03-29T07:11:42;10.80;;;2.83;;
64881;SDS011;51375;44.836;38.672;2024-03-29T07:14:08;9.52;;;2.28;;
64881;SDS011;51375;44.836;38.672;2024-03-29T07:16:34;8.23;;;2.55;;
64881;SDS011;51375;44.836;38.672;2024-03-29T07:19:00;6.45;;;1.90;;
64881;SDS011;51375;44.836;38.672;2024-03-29T07:21:26;7.22;;;2.80;;
64881;SDS011;51375;44.836;38.672;2024-03-29T07:23:52;7.05;;;2.78;;
64881;SDS011;51375;44.836;38.672;2024-03-29T07:26:17;16.45;;;3.05;;
64881;SDS011;51375;44.836;38.672;2024-03-29T07:28:43;17.15;;;2.92;;
64881;SDS011;51375;44.836;38.672;2024-03-29T07:31:09;10.88;;;3.28;;
64881;SDS011;51375;44.836;38.672;2024-03-29T07:33:35;18.45;;;3.08;;
64881;SDS011;51375;44.836;38.672;2024-03-29T07:36:01;13.88;;;2.90;;
64881;SDS011;51375;44.836;38.672;2024-03-29T07:38:29;18.42;;;3.35;;
64881;SDS011;51375;44.836;38.672;2024-03-29T07:40:55;17.13;;;4.07;;
64881;SDS011;51375;44.836;38.672;2024-03-29T07:43:21;19.98;;;3.50;;
64881;SDS011;51375;44.836;38.672;2024-03-29T07:45:48;20.20;;;3.80;;
64881;SDS011;51375;44.836;38.672;2024-03-29T07:48:15;11.30;;;3.35;;
64881;SDS011;51375;44.836;38.672;2024-03-29T07:50:42;9.77;;;2.72;;
64881;SDS011;51375;44.836;38.672;2024-03-29T07:53:09;12.65;;;3.75;;
64881;SDS011;51375;44.836;38.672;2024-03-29T07:55:35;15.07;;;2.55;;
64881;SDS011;51375;44.836;38.672;2024-03-29T07:58:02;13.10;;;2.17;;
64881;SDS011;51375;44.836;38.672;2024-03-29T08:00:33;10.10;;;2.83;;
64881;SDS011;51375;44.836;38.672;2024-03-29T08:03:00;12.20;;;2.70;;
64881;SDS011;51375;44.836;38.672;2024-03-29T08:05:27;18.25;;;3.83;;
64881;SDS011;51375;44.836;38.672;2024-03-29T08:07:53;12.55;;;2.55;;
64881;SDS011;51375;44.836;38.672;2024-03-29T08:10:20;11.48;;;2.88;;
64881;SDS011;51375;44.836;38.672;2024-03-29T08:12:46;10.38;;;2.60;;
64881;SDS011;51375;44.836;38.672;2024-03-29T08:15:12;9.23;;;2.40;;
64881;SDS011;51375;44.836;38.672;2024-03-29T08:17:38;20.77;;;4.65;;
64881;SDS011;51375;44.836;38.672;2024-03-29T08:20:04;11.45;;;3.05;;
64881;SDS011;51375;44.836;38.672;2024-03-29T08:22:30;13.15;;;3.60;;
64881;SDS011;51375;44.836;38.672;2024-03-29T08:24:59;9.75;;;2.40;;
64881;SDS011;51375;44.836;38.672;2024-03-29T08:27:28;7.35;;;1.90;;
64881;SDS011;51375;44.836;38.672;2024-03-29T08:29:54;12.32;;;2.10;;
64881;SDS011;51375;44.836;38.672;2024-03-29T08:32:20;11.20;;;2.53;;
64881;SDS011;51375;44.836;38.672;2024-03-29T08:34:46;10.10;;;2.00;;
64881;SDS011;51375;44.836;38.672;2024-03-29T08:37:12;16.38;;;2.13;;
64881;SDS011;51375;44.836;38.672;2024-03-29T08:39:38;18.75;;;3.50;;
64881;SDS011;51375;44.836;38.672;2024-03-29T08:42:04;19.40;;;2.70;;
64881;SDS011;51375;44.836;38.672;2024-03-29T08:44:32;19.95;;;3.70;;
64881;SDS011;51375;44.836;38.672;2024-03-29T08:46:58;10.10;;;2.78;;
64881;SDS011;51375;44.836;38.672;2024-03-29T08:49:29;9.80;;;2.35;;
64881;SDS011;51375;44.836;38.672;2024-03-29T08:51:56;9.75;;;2.35;;
64881;SDS011;51375;44.836;38.672;2024-03-29T08:54:24;15.55;;;2.92;;
64881;SDS011;51375;44.836;38.672;2024-03-29T08:56:50;12.13;;;3.60;;
64881;SDS011;51375;44.836;38.672;2024-03-29T08:59:16;16.02;;;4.20;;
64881;SDS011;51375;44.836;38.672;2024-03-29T09:01:46;8.32;;;3.00;;
64881;SDS011;51375;44.836;38.672;2024-03-29T09:04:18;10.50;;;2.10;;
64881;SDS011;51375;44.836;38.672;2024-03-29T09:06:45;11.13;;;2.22;;
64881;SDS011;51375;44.836;38.672;2024-03-29T09:09:10;13.85;;;2.50;;
64881;SDS011;51375;44.836;38.672;2024-03-29T09:11:36;16.05;;;2.22;;
64881;SDS011;51375;44.836;38.672;2024-03-29T09:14:02;8.13;;;1.40;;
64881;SDS011;51375;44.836;38.672;2024-03-29T09:16:29;16.77;;;2.35;;
64881;SDS011;51375;44.836;38.672;2024-03-29T09:18:55;14.25;;;2.65;;
64881;SDS011;51375;44.836;38.672;2024-03-29T09:21:22;9.20;;;2.50;;
64881;SDS011;51375;44.836;38.672;2024-03-29T09:23:48;11.90;;;2.30;;
64881;SDS011;51375;44.836;38.672;2024-03-29T09:26:16;15.15;;;1.95;;
64881;SDS011;51375;44.836;38.672;2024-03-29T09:28:42;16.65;;;2.53;;
64881;SDS011;51375;44.836;38.672;2024-03-29T09:31:08;15.13;;;2.53;;
64881;SDS011;51375;44.836;38.672;2024-03-29T09:33:34;9.95;;;2.75;;
64881;SDS011;51375;44.836;38.672;2024-03-29T09:36:00;13.85;;;2.97;;
64881;SDS011;51375;44.836;38.672;2024-03-29T09:38:26;15.63;;;2.28;;
64881;SDS011;51375;44.836;38.672;2024-03-29T09:43:44;8.32;;;2.38;;
64881;SDS011;51375;44.836;38.672;2024-03-29T09:46:14;11.88;;;2.17;;
64881;SDS011;51375;44.836;38.672;2024-03-29T09:48:44;12.68;;;2.40;;
64881;SDS011;51375;44.836;38.672;2024-03-29T09:51:14;11.73;;;2.55;;
64881;SDS011;51375;44.836;38.672;2024-03-29T09:53:40;7.68;;;2.10;;
64881;SDS011;51375;44.836;38.672;2024-03-29T09:56:08;12.90;;;2.83;;
64881;SDS011;51375;44.836;38.672;2024-03-29T09:58:34;14.05;;;2.40;;
64881;SDS011;51375;44.836;38.672;2024-03-29T10:01:02;12.82;;;2.30;;
64881;SDS011;51375;44.836;38.672;2024-03-29T10:03:29;12.75;;;3.35;;
64881;SDS011;51375;44.836;38.672;2024-03-29T10:05:57;11.60;;;2.33;;
64881;SDS011;51375;44.836;38.672;2024-03-29T10:08:29;11.07;;;2.65;;
64881;SDS011;51375;44.836;38.672;2024-03-29T10:10:56;17.40;;;3.38;;
64881;SDS011;51375;44.836;38.672;2024-03-29T10:13:23;11.25;;;2.88;;
64881;SDS011;51375;44.836;38.672;2024-03-29T10:15:50;13.32;;;2.20;;
64881;SDS011;51375;44.836;38.672;2024-03-29T10:18:23;14.18;;;3.03;;
64881;SDS011;51375;44.836;38.672;2024-03-29T10:23:27;12.02;;;2.35;;
64881;SDS011;51375;44.836;38.672;2024-03-29T10:25:53;10.60;;;2.20;;
64881;SDS011;51375;44.836;38.672;2024-03-29T10:28:19;7.75;;;2.75;;
64881;SDS011;51375;44.836;38.672;2024-03-29T10:30:45;12.55;;;2.60;;
64881;SDS011;51375;44.836;38.672;2024-03-29T10:33:12;16.02;;;2.17;;
64881;SDS011;51375;44.836;38.672;2024-03-29T10:35:41;7.30;;;2.28;;
64881;SDS011;51375;44.836;38.672;2024-03-29T10:38:11;14.07;;;2.35;;
64881;SDS011;51375;44.836;38.672;2024-03-29T10:40:41;6.38;;;2.00;;
64881;SDS011;51375;44.836;38.672;2024-03-29T10:43:10;10.07;;;1.45;;
64881;SDS011;51375;44.836;38.672;2024-03-29T10:45:41;11.13;;;1.90;;
64881;SDS011;51375;44.836;38.672;2024-03-29T10:48:09;10.55;;;1.75;;
64881;SDS011;51375;44.836;38.672;2024-03-29T10:50:35;11.95;;;2.30;;
64881;SDS011;51375;44.836;38.672;2024-03-29T10:53:02;7.97;;;2.42;;
64881;SDS011;51375;44.836;38.672;2024-03-29T10:55:29;8.57;;;2.33;;
64881;SDS011;51375;44.836;38.672;2024-03-29T10:57:58;6.15;;;1.75;;
64881;SDS011;51375;44.836;38.672;2024-03-29T11:00:25;16.52;;;5.20;;
64881;SDS011;51375;44.836;38.672;2024-03-29T11:03:01;21.98;;;5.25;;
64881;SDS011;51375;44.836;38.672;2024-03-29T11:05:38;19.65;;;4.53;;
64881;SDS011;51375;44.836;38.672;2024-03-29T11:08:19;12.57;;;4.30;;
64881;SDS011;51375;44.836;38.672;2024-03-29T11:10:49;15.77;;;3.92;;
64881;SDS011;51375;44.836;38.672;2024-03-29T11:16:04;12.48;;;3.40;;
64881;SDS011;51375;44.836;38.672;2024-03-29T11:18:30;7.88;;;2.30;;
64881;SDS011;51375;44.836;38.672;2024-03-29T11:20:57;14.65;;;2.65;;
64881;SDS011;51375;44.836;38.672;2024-03-29T11:23:26;8.85;;;2.13;;
64881;SDS011;51375;44.836;38.672;2024-03-29T11:25:53;14.43;;;3.38;;
64881;SDS011;51375;44.836;38.672;2024-03-29T11:28:23;10.10;;;2.33;;
64881;SDS011;51375;44.836;38.672;2024-03-29T11:30:52;25.90;;;7.40;;
64881;SDS011;51375;44.836;38.672;2024-03-29T11:33:52;27.77;;;8.20;;
64881;SDS011;51375;44.836;38.672;2024-03-29T11:39:19;16.25;;;5.28;;
64881;SDS011;51375;44.836;38.672;2024-03-29T11:41:46;18.10;;;6.28;;
64881;SDS011;51375;44.836;38.672;2024-03-29T11:44:16;11.63;;;3.22;;
64881;SDS011;51375;44.836;38.672;2024-03-29T11:46:44;6.85;;;1.98;;
64881;SDS011;51375;44.836;38.672;2024-03-29T11:49:10;17.92;;;4.28;;
64881;SDS011;51375;44.836;38.672;2024-03-29T11:51:36;15.38;;;4.13;;
64881;SDS011;51375;44.836;38.672;2024-03-29T11:54:02;14.30;;;3.60;;
64881;SDS011;51375;44.836;38.672;2024-03-29T11:56:28;17.20;;;4.13;;
64881;SDS011;51375;44.836;38.672;2024-03-29T11:58:54;11.07;;;2.75;;
64881;SDS011;51375;44.836;38.672;2024-03-29T12:01:25;7.70;;;2.58;;
64881;SDS011;51375;44.836;38.672;2024-03-29T12:03:54;10.88;;;2.20;;
64881;SDS011;51375;44.836;38.672;2024-03-29T12:06:20;11.80;;;2.55;;
64881;SDS011;51375;44.836;38.672;2024-03-29T12:08:47;8.25;;;3.20;;
64881;SDS011;51375;44.836;38.672;2024-03-29T12:11:14;13.45;;;3.78;;
64881;SDS011;51375;44.836;38.672;2024-03-29T12:13:40;10.95;;;2.20;;
64881;SDS011;51375;44.836;38.672;2024-03-29T12:16:06;7.53;;;1.90;;
64881;SDS011;51375;44.836;38.672;2024-03-29T12:18:33;8.80;;;2.10;;
64881;SDS011;51375;44.836;38.672;2024-03-29T12:21:00;14.27;;;1.95;;
64881;SDS011;51375;44.836;38.672;2024-03-29T12:23:26;8.65;;;2.15;;
64881;SDS011;51375;44.836;38.672;2024-03-29T12:25:55;5.10;;;1.73;;
64881;SDS011;51375;44.836;38.672;2024-03-29T12:28:24;19.13;;;2.80;;
64881;SDS011;51375;44.836;38.672;2024-03-29T12:30:51;8.10;;;2.10;;
64881;SDS011;51375;44.836;38.672;2024-03-29T12:33:19;9.23;;;1.95;;
64881;SDS011;51375;44.836;38.672;2024-03-29T12:35:47;11.48;;;2.03;;
64881;SDS011;51375;44.836;38.672;2024-03-29T12:38:15;9.25;;;2.22;;
64881;SDS011;51375;44.836;38.672;2024-03-29T12:40:42;6.78;;;2.13;;
64881;SDS011;51375;44.836;38.672;2024-03-29T12:43:10;12.73;;;1.88;;
64881;SDS011;51375;44.836;38.672;2024-03-29T12:45:38;7.95;;;2.10;;
64881;SDS011;51375;44.836;38.672;2024-03-29T12:48:12;8.77;;;2.22;;
64881;SDS011;51375;44.836;38.672;2024-03-29T12:50:43;9.95;;;2.38;;
64881;SDS011;51375;44.836;38.672;2024-03-29T12:53:12;8.75;;;1.75;;
64881;SDS011;51375;44.836;38.672;2024-03-29T12:55:40;14.95;;;2.33;;
64881;SDS011;51375;44.836;38.672;2024-03-29T12:58:09;15.27;;;2.92;;
64881;SDS011;51375;44.836;38.672;2024-03-29T13:00:36;9.00;;;2.47;;
64881;SDS011;51375;44.836;38.672;2024-03-29T13:03:06;14.63;;;2.35;;
64881;SDS011;51375;44.836;38.672;2024-03-29T13:05:33;9.35;;;2.80;;
64881;SDS011;51375;44.836;38.672;2024-03-29T13:08:03;15.13;;;2.38;;
64881;SDS011;51375;44.836;38.672;2024-03-29T13:10:34;16.92;;;2.15;;
64881;SDS011;51375;44.836;38.672;2024-03-29T13:13:00;10.35;;;2.58;;
64881;SDS011;51375;44.836;38.672;2024-03-29T13:15:26;14.10;;;2.85;;
64881;SDS011;51375;44.836;38.672;2024-03-29T13:17:54;14.40;;;3.40;;
64881;SDS011;51375;44.836;38.672;2024-03-29T13:20:22;13.18;;;2.17;;
64881;SDS011;51375;44.836;38.672;2024-03-29T13:22:49;13.15;;;2.25;;
64881;SDS011;51375;44.836;38.672;2024-03-29T13:25:16;16.90;;;2.55;;
64881;SDS011;51375;44.836;38.672;2024-03-29T13:27:43;9.63;;;2.35;;
64881;SDS011;51375;44.836;38.672;2024-03-29T13:30:11;14.15;;;2.15;;
64881;SDS011;51375;44.836;38.672;2024-03-29T13:32:39;16.85;;;2.15;;
64881;SDS011;51375;44.836;38.672;2024-03-29T13:35:05;16.75;;;2.50;;
64881;SDS011;51375;44.836;38.672;2024-03-29T13:37:38;14.95;;;2.53;;
64881;SDS011;51375;44.836;38.672;2024-03-29T13:40:07;20.02;;;2.97;;
64881;SDS011;51375;44.836;38.672;2024-03-29T13:42:37;13.90;;;2.30;;
64881;SDS011;51375;44.836;38.672;2024-03-29T13:45:09;21.40;;;2.35;;
64881;SDS011;51375;44.836;38.672;2024-03-29T13:47:39;8.98;;;2.13;;
64881;SDS011;51375;44.836;38.672;2024-03-29T13:50:10;10.95;;;2.38;;
64881;SDS011;51375;44.836;38.672;2024-03-29T13:52:37;17.92;;;2.13;;
64881;SDS011;51375;44.836;38.672;2024-03-29T13:55:04;13.30;;;2.90;;
64881;SDS011;51375;44.836;38.672;2024-03-29T13:57:30;11.18;;;2.63;;
64881;SDS011;51375;44.836;38.672;2024-03-29T13:59:57;13.63;;;3.55;;
64881;SDS011;51375;44.836;38.672;2024-03-29T14:02:27;18.80;;;2.58;;
64881;SDS011;51375;44.836;38.672;2024-03-29T14:04:54;14.98;;;2.83;;
64881;SDS011;51375;44.836;38.672;2024-03-29T14:07:21;11.18;;;2.85;;
64881;SDS011;51375;44.836;38.672;2024-03-29T14:09:50;18.45;;;2.25;;
64881;SDS011;51375;44.836;38.672;2024-03-29T14:12:16;15.15;;;2.20;;
64881;SDS011;51375;44.836;38.672;2024-03-29T14:14:44;18.38;;;2.88;;
64881;SDS011;51375;44.836;38.672;2024-03-29T14:17:13;16.25;;;2.38;;
64881;SDS011;51375;44.836;38.672;2024-03-29T14:19:42;14.45;;;2.45;;
64881;SDS011;51375;44.836;38.672;2024-03-29T14:22:09;14.30;;;2.00;;
64881;SDS011;51375;44.836;38.672;2024-03-29T14:24:37;12.05;;;2.28;;
64881;SDS011;51375;44.836;38.672;2024-03-29T14:27:05;14.60;;;2.80;;
64881;SDS011;51375;44.836;38.672;2024-03-29T14:29:31;20.40;;;3.05;;
64881;SDS011;51375;44.836;38.672;2024-03-29T14:31:58;20.95;;;2.30;;
64881;SDS011;51375;44.836;38.672;2024-03-29T14:34:24;15.73;;;2.30;;
64881;SDS011;51375;44.836;38.672;2024-03-29T14:36:51;15.13;;;2.20;;
64881;SDS011;51375;44.836;38.672;2024-03-29T14:39:18;13.40;;;2.47;;
64881;SDS011;51375;44.836;38.672;2024-03-29T14:41:49;11.10;;;2.25;;